sensor_id;sensor_type;location;lat;lon;timestamp;pressure;altitude;pressure_sealevel;temperature;humidity
32638;BME280;19045;52.268;10.506;2022-12-20T00:01:26;100689.63;;;7.10;96.17
32638;BME280;19045;52.268;10.506;2022-12-20T00:03:54;100672.69;;;7.16;95.49
32638;BME280;19045;52.268;10.506;2022-12-20T00:06:22;100671.09;;;7.15;95.57
32638;BME280;19045;52.268;10.506;2022-12-20T00:08:53;100675.50;;;7.21;95.69
32638;BME280;19045;52.268;10.506;2022-12-20T00:11:20;100676.31;;;7.21;96.38
32638;BME280;19045;52.268;10.506;2022-12-20T00:13:47;100678.28;;;7.26;96.25
32638;BME280;19045;52.268;10.506;2022-12-20T00:16:15;100670.19;;;7.33;96.61
32638;BME280;19045;52.268;10.506;2022-12-20T00:18:42;100670.88;;;7.40;96.85
32638;BME280;19045;52.268;10.506;2022-12-20T00:21:11;100664.72;;;7.39;96.10
32638;BME280;19045;52.268;10.506;2022-12-20T00:23:38;100661.38;;;7.44;95.80
32638;BME280;19045;52.268;10.506;2022-12-20T00:26:08;100665.09;;;7.43;96.11
32638;BME280;19045;52.268;10.506;2022-12-20T00:28:36;100650.94;;;7.42;96.74
32638;BME280;19045;52.268;10.506;2022-12-20T00:31:04;100630.22;;;7.38;96.44
32638;BME280;19045;52.268;10.506;2022-12-20T00:33:31;100630.81;;;7.40;96.54
32638;BME280;19045;52.268;10.506;2022-12-20T00:35:58;100638.59;;;7.41;96.96
32638;BME280;19045;52.268;10.506;2022-12-20T00:38:25;100636.97;;;7.40;97.25
32638;BME280;19045;52.268;10.506;2022-12-20T00:40:59;100641.28;;;7.41;97.39
32638;BME280;19045;52.268;10.506;2022-12-20T00:43:27;100652.31;;;7.45;96.94
32638;BME280;19045;52.268;10.506;2022-12-20T00:45:54;100646.03;;;7.39;98.15
32638;BME280;19045;52.268;10.506;2022-12-20T00:48:21;100647.09;;;7.50;97.84
32638;BME280;19045;52.268;10.506;2022-12-20T00:50:47;100636.75;;;7.53;97.59
32638;BME280;19045;52.268;10.506;2022-12-20T00:53:14;100650.47;;;7.57;96.86
32638;BME280;19045;52.268;10.506;2022-12-20T00:55:42;100649.88;;;7.55;97.06
32638;BME280;19045;52.268;10.506;2022-12-20T00:58:09;100646.75;;;7.58;96.99
32638;BME280;19045;52.268;10.506;2022-12-20T01:00:37;100647.56;;;7.58;96.73
32638;BME280;19045;52.268;10.506;2022-12-20T01:03:05;100645.13;;;7.57;96.85
32638;BME280;19045;52.268;10.506;2022-12-20T01:05:31;100647.56;;;7.58;96.46
32638;BME280;19045;52.268;10.506;2022-12-20T01:07:58;100651.28;;;7.57;96.31
32638;BME280;19045;52.268;10.506;2022-12-20T01:10:25;100646.84;;;7.63;96.09
32638;BME280;19045;52.268;10.506;2022-12-20T01:12:52;100640.81;;;7.67;96.25
32638;BME280;19045;52.268;10.506;2022-12-20T01:15:19;100645.69;;;7.70;95.99
32638;BME280;19045;52.268;10.506;2022-12-20T01:17:47;100646.53;;;7.71;95.93
32638;BME280;19045;52.268;10.506;2022-12-20T01:20:14;100641.75;;;7.73;95.86
32638;BME280;19045;52.268;10.506;2022-12-20T01:22:41;100641.53;;;7.74;95.76
32638;BME280;19045;52.268;10.506;2022-12-20T01:25:08;100641.88;;;7.78;96.09
32638;BME280;19045;52.268;10.506;2022-12-20T01:27:34;100632.22;;;7.77;96.04
32638;BME280;19045;52.268;10.506;2022-12-20T01:30:01;100634.06;;;7.76;96.50
32638;BME280;19045;52.268;10.506;2022-12-20T01:32:28;100629.66;;;7.82;95.82
32638;BME280;19045;52.268;10.506;2022-12-20T01:34:56;100627.00;;;7.82;95.96
32638;BME280;19045;52.268;10.506;2022-12-20T01:37:22;100620.56;;;7.83;96.12
32638;BME280;19045;52.268;10.506;2022-12-20T01:39:49;100620.34;;;7.85;96.39
32638;BME280;19045;52.268;10.506;2022-12-20T01:42:15;100611.75;;;7.82;96.34
32638;BME280;19045;52.268;10.506;2022-12-20T01:44:56;100609.53;;;7.79;97.36
32638;BME280;19045;52.268;10.506;2022-12-20T01:47:24;100612.00;;;7.81;97.64
32638;BME280;19045;52.268;10.506;2022-12-20T01:49:56;100599.44;;;7.82;97.48
32638;BME280;19045;52.268;10.506;2022-12-20T01:52:28;100617.69;;;7.85;97.13
32638;BME280;19045;52.268;10.506;2022-12-20T01:55:03;100615.69;;;7.92;97.09
32638;BME280;19045;52.268;10.506;2022-12-20T01:57:35;100628.47;;;7.90;97.39
32638;BME280;19045;52.268;10.506;2022-12-20T02:00:03;100614.75;;;7.86;97.96
32638;BME280;19045;52.268;10.506;2022-12-20T02:02:31;100616.97;;;7.89;97.46
32638;BME280;19045;52.268;10.506;2022-12-20T02:04:59;100604.41;;;7.90;97.47
32638;BME280;19045;52.268;10.506;2022-12-20T02:07:28;100599.88;;;7.90;97.32
32638;BME280;19045;52.268;10.506;2022-12-20T02:09:57;100582.53;;;7.93;97.87
32638;BME280;19045;52.268;10.506;2022-12-20T02:12:30;100582.78;;;7.91;97.58
32638;BME280;19045;52.268;10.506;2022-12-20T02:15:07;100595.22;;;7.97;98.13
32638;BME280;19045;52.268;10.506;2022-12-20T02:17:44;100594.66;;;7.95;97.82
32638;BME280;19045;52.268;10.506;2022-12-20T02:20:32;100593.84;;;7.95;97.69
32638;BME280;19045;52.268;10.506;2022-12-20T02:23:18;100598.59;;;7.93;98.13
32638;BME280;19045;52.268;10.506;2022-12-20T02:26:01;100600.56;;;7.97;97.96
32638;BME280;19045;52.268;10.506;2022-12-20T02:28:45;100610.44;;;7.97;97.64
32638;BME280;19045;52.268;10.506;2022-12-20T02:31:18;100608.81;;;7.96;97.53
32638;BME280;19045;52.268;10.506;2022-12-20T02:33:47;100602.41;;;7.97;98.09
32638;BME280;19045;52.268;10.506;2022-12-20T02:36:15;100599.53;;;7.98;97.78
32638;BME280;19045;52.268;10.506;2022-12-20T02:38:42;100603.00;;;7.99;97.36
32638;BME280;19045;52.268;10.506;2022-12-20T02:41:12;100606.25;;;8.01;97.67
32638;BME280;19045;52.268;10.506;2022-12-20T02:43:41;100609.63;;;7.96;97.57
32638;BME280;19045;52.268;10.506;2022-12-20T02:46:29;100608.13;;;8.00;97.64
32638;BME280;19045;52.268;10.506;2022-12-20T02:49:00;100617.19;;;7.99;97.70
32638;BME280;19045;52.268;10.506;2022-12-20T02:51:29;100605.78;;;7.92;98.68
32638;BME280;19045;52.268;10.506;2022-12-20T02:53:58;100611.75;;;7.94;98.16
32638;BME280;19045;52.268;10.506;2022-12-20T02:56:28;100611.47;;;8.07;98.49
32638;BME280;19045;52.268;10.506;2022-12-20T02:59:00;100609.97;;;8.11;98.12
32638;BME280;19045;52.268;10.506;2022-12-20T03:01:32;100601.22;;;8.16;98.19
32638;BME280;19045;52.268;10.506;2022-12-20T03:04:00;100595.78;;;8.11;98.60
32638;BME280;19045;52.268;10.506;2022-12-20T03:06:27;100585.19;;;8.04;98.60
32638;BME280;19045;52.268;10.506;2022-12-20T03:08:55;100591.59;;;8.15;98.88
32638;BME280;19045;52.268;10.506;2022-12-20T03:11:21;100595.38;;;8.19;98.47
32638;BME280;19045;52.268;10.506;2022-12-20T03:13:48;100587.84;;;8.16;98.02
32638;BME280;19045;52.268;10.506;2022-12-20T03:16:15;100595.78;;;8.11;98.64
32638;BME280;19045;52.268;10.506;2022-12-20T03:18:43;100588.44;;;8.18;98.61
32638;BME280;19045;52.268;10.506;2022-12-20T03:21:10;100578.34;;;8.08;98.92
32638;BME280;19045;52.268;10.506;2022-12-20T03:23:37;100589.94;;;8.14;99.61
32638;BME280;19045;52.268;10.506;2022-12-20T03:26:04;100576.66;;;8.19;99.51
32638;BME280;19045;52.268;10.506;2022-12-20T03:28:31;100576.44;;;8.20;99.34
32638;BME280;19045;52.268;10.506;2022-12-20T03:30:57;100558.59;;;8.26;99.31
32638;BME280;19045;52.268;10.506;2022-12-20T03:33:24;100570.75;;;8.28;99.07
32638;BME280;19045;52.268;10.506;2022-12-20T03:35:52;100573.63;;;8.27;98.75
32638;BME280;19045;52.268;10.506;2022-12-20T03:38:18;100569.53;;;8.36;98.39
32638;BME280;19045;52.268;10.506;2022-12-20T03:40:45;100572.22;;;8.36;98.35
32638;BME280;19045;52.268;10.506;2022-12-20T03:43:11;100570.25;;;8.32;98.27
32638;BME280;19045;52.268;10.506;2022-12-20T03:45:38;100570.91;;;8.39;97.87
32638;BME280;19045;52.268;10.506;2022-12-20T03:48:05;100569.88;;;8.40;97.98
32638;BME280;19045;52.268;10.506;2022-12-20T03:50:31;100567.78;;;8.42;98.03
32638;BME280;19045;52.268;10.506;2022-12-20T03:53:00;100556.81;;;8.43;97.95
32638;BME280;19045;52.268;10.506;2022-12-20T03:55:27;100547.63;;;8.39;98.04
32638;BME280;19045;52.268;10.506;2022-12-20T03:57:53;100548.72;;;8.38;98.33
32638;BME280;19045;52.268;10.506;2022-12-20T04:00:20;100561.34;;;8.43;98.23
32638;BME280;19045;52.268;10.506;2022-12-20T04:02:47;100563.31;;;8.47;97.61
32638;BME280;19045;52.268;10.506;2022-12-20T04:05:13;100558.31;;;8.51;97.61
32638;BME280;19045;52.268;10.506;2022-12-20T04:07:41;100559.13;;;8.51;97.34
32638;BME280;19045;52.268;10.506;2022-12-20T04:10:09;100557.34;;;8.57;96.98
32638;BME280;19045;52.268;10.506;2022-12-20T04:12:36;100541.50;;;8.55;96.66
32638;BME280;19045;52.268;10.506;2022-12-20T04:15:03;100537.22;;;8.54;96.53
32638;BME280;19045;52.268;10.506;2022-12-20T04:17:30;100545.00;;;8.56;96.80
32638;BME280;19045;52.268;10.506;2022-12-20T04:19:56;100560.34;;;8.60;96.33
32638;BME280;19045;52.268;10.506;2022-12-20T04:22:23;100562.69;;;8.57;96.50
32638;BME280;19045;52.268;10.506;2022-12-20T04:24:50;100558.16;;;8.57;96.39
32638;BME280;19045;52.268;10.506;2022-12-20T04:27:18;100570.66;;;8.68;96.23
32638;BME280;19045;52.268;10.506;2022-12-20T04:29:44;100564.25;;;8.69;96.21
32638;BME280;19045;52.268;10.506;2022-12-20T04:32:11;100555.41;;;8.69;95.56
32638;BME280;19045;52.268;10.506;2022-12-20T04:34:37;100546.41;;;8.75;95.39
32638;BME280;19045;52.268;10.506;2022-12-20T04:37:04;100545.34;;;8.76;95.25
32638;BME280;19045;52.268;10.506;2022-12-20T04:39:31;100559.41;;;8.83;95.44
32638;BME280;19045;52.268;10.506;2022-12-20T04:41:58;100564.38;;;8.91;95.01
32638;BME280;19045;52.268;10.506;2022-12-20T04:44:26;100557.94;;;8.92;94.10
32638;BME280;19045;52.268;10.506;2022-12-20T04:46:53;100555.84;;;8.94;95.01
32638;BME280;19045;52.268;10.506;2022-12-20T04:49:19;100548.38;;;8.96;95.05
32638;BME280;19045;52.268;10.506;2022-12-20T04:51:46;100550.06;;;9.02;94.54
32638;BME280;19045;52.268;10.506;2022-12-20T04:54:12;100541.06;;;9.08;94.42
32638;BME280;19045;52.268;10.506;2022-12-20T04:56:38;100537.91;;;9.11;94.69
32638;BME280;19045;52.268;10.506;2022-12-20T04:59:05;100545.97;;;9.11;94.00
32638;BME280;19045;52.268;10.506;2022-12-20T05:01:33;100551.06;;;9.13;94.34
32638;BME280;19045;52.268;10.506;2022-12-20T05:03:59;100554.00;;;9.11;93.87
32638;BME280;19045;52.268;10.506;2022-12-20T05:06:26;100557.72;;;9.10;94.29
32638;BME280;19045;52.268;10.506;2022-12-20T05:08:53;100566.56;;;9.11;93.83
32638;BME280;19045;52.268;10.506;2022-12-20T05:11:19;100550.50;;;9.11;94.04
32638;BME280;19045;52.268;10.506;2022-12-20T05:13:46;100554.00;;;9.11;93.95
32638;BME280;19045;52.268;10.506;2022-12-20T05:16:13;100552.84;;;9.07;94.18
32638;BME280;19045;52.268;10.506;2022-12-20T05:18:41;100552.03;;;9.07;94.30
32638;BME280;19045;52.268;10.506;2022-12-20T05:21:07;100561.13;;;9.06;94.34
32638;BME280;19045;52.268;10.506;2022-12-20T05:23:51;100557.13;;;9.08;94.72
32638;BME280;19045;52.268;10.506;2022-12-20T05:26:36;100544.66;;;9.14;94.51
32638;BME280;19045;52.268;10.506;2022-12-20T05:29:04;100545.97;;;9.11;94.53
32638;BME280;19045;52.268;10.506;2022-12-20T05:31:31;100552.38;;;9.10;94.56
32638;BME280;19045;52.268;10.506;2022-12-20T05:33:59;100546.75;;;9.12;94.46
32638;BME280;19045;52.268;10.506;2022-12-20T05:36:26;100545.69;;;9.13;94.02
32638;BME280;19045;52.268;10.506;2022-12-20T05:38:52;100556.41;;;9.13;94.31
32638;BME280;19045;52.268;10.506;2022-12-20T05:41:19;100538.47;;;9.13;94.41
32638;BME280;19045;52.268;10.506;2022-12-20T05:43:45;100552.91;;;9.12;94.36
32638;BME280;19045;52.268;10.506;2022-12-20T05:46:12;100555.59;;;9.12;94.34
32638;BME280;19045;52.268;10.506;2022-12-20T05:48:39;100553.50;;;9.14;94.45
32638;BME280;19045;52.268;10.506;2022-12-20T05:51:07;100552.91;;;9.12;94.87
32638;BME280;19045;52.268;10.506;2022-12-20T05:53:34;100564.72;;;9.11;95.45
32638;BME280;19045;52.268;10.506;2022-12-20T05:56:00;100564.94;;;9.10;95.41
32638;BME280;19045;52.268;10.506;2022-12-20T05:58:27;100555.53;;;9.07;95.80
32638;BME280;19045;52.268;10.506;2022-12-20T06:00:54;100541.06;;;9.08;96.03
32638;BME280;19045;52.268;10.506;2022-12-20T06:03:21;100548.63;;;9.11;96.37
32638;BME280;19045;52.268;10.506;2022-12-20T06:05:48;100550.50;;;9.11;95.95
32638;BME280;19045;52.268;10.506;2022-12-20T06:08:16;100554.44;;;9.08;96.23
32638;BME280;19045;52.268;10.506;2022-12-20T06:10:42;100543.19;;;9.06;96.46
32638;BME280;19045;52.268;10.506;2022-12-20T06:13:09;100543.19;;;9.06;96.76
32638;BME280;19045;52.268;10.506;2022-12-20T06:15:36;100546.13;;;9.05;96.35
32638;BME280;19045;52.268;10.506;2022-12-20T06:18:04;100551.72;;;9.03;96.68
32638;BME280;19045;52.268;10.506;2022-12-20T06:20:31;100547.97;;;9.04;96.35
32638;BME280;19045;52.268;10.506;2022-12-20T06:23:01;100543.44;;;9.05;95.98
32638;BME280;19045;52.268;10.506;2022-12-20T06:25:29;100537.25;;;9.04;96.01
32638;BME280;19045;52.268;10.506;2022-12-20T06:27:56;100553.91;;;9.06;95.73
32638;BME280;19045;52.268;10.506;2022-12-20T06:30:23;100552.84;;;9.07;95.77
32638;BME280;19045;52.268;10.506;2022-12-20T06:32:50;100559.03;;;9.08;95.65
32638;BME280;19045;52.268;10.506;2022-12-20T06:35:16;100552.03;;;9.07;95.84
32638;BME280;19045;52.268;10.506;2022-12-20T06:37:43;100553.00;;;9.01;95.92
32638;BME280;19045;52.268;10.506;2022-12-20T06:40:13;100554.38;;;9.03;95.96
32638;BME280;19045;52.268;10.506;2022-12-20T06:42:41;100560.31;;;9.05;96.00
32638;BME280;19045;52.268;10.506;2022-12-20T06:45:08;100568.59;;;9.04;96.23
32638;BME280;19045;52.268;10.506;2022-12-20T06:47:35;100556.25;;;9.03;96.15
32638;BME280;19045;52.268;10.506;2022-12-20T06:50:03;100562.97;;;9.05;96.03
32638;BME280;19045;52.268;10.506;2022-12-20T06:52:30;100553.34;;;9.04;96.25
32638;BME280;19045;52.268;10.506;2022-12-20T06:54:56;100565.09;;;9.03;96.42
32638;BME280;19045;52.268;10.506;2022-12-20T06:57:23;100558.69;;;9.04;96.22
32638;BME280;19045;52.268;10.506;2022-12-20T06:59:51;100554.72;;;9.07;95.99
32638;BME280;19045;52.268;10.506;2022-12-20T07:02:18;100565.44;;;9.07;95.84
32638;BME280;19045;52.268;10.506;2022-12-20T07:04:44;100578.50;;;9.03;95.89
32638;BME280;19045;52.268;10.506;2022-12-20T07:07:11;100568.28;;;9.00;96.20
32638;BME280;19045;52.268;10.506;2022-12-20T07:09:38;100576.47;;;8.94;96.96
32638;BME280;19045;52.268;10.506;2022-12-20T07:12:07;100575.88;;;8.92;96.68
32638;BME280;19045;52.268;10.506;2022-12-20T07:14:33;100564.38;;;8.91;97.14
32638;BME280;19045;52.268;10.506;2022-12-20T07:17:02;100558.19;;;8.91;96.99
32638;BME280;19045;52.268;10.506;2022-12-20T07:19:29;100559.81;;;8.92;96.74
32638;BME280;19045;52.268;10.506;2022-12-20T07:21:56;100558.09;;;8.86;96.98
32638;BME280;19045;52.268;10.506;2022-12-20T07:24:22;100563.56;;;8.91;96.87
32638;BME280;19045;52.268;10.506;2022-12-20T07:26:49;100555.19;;;8.87;96.96
32638;BME280;19045;52.268;10.506;2022-12-20T07:29:15;100550.41;;;8.89;96.27
32638;BME280;19045;52.268;10.506;2022-12-20T07:31:42;100556.50;;;8.85;96.83
32638;BME280;19045;52.268;10.506;2022-12-20T07:34:10;100537.75;;;8.85;96.65
32638;BME280;19045;52.268;10.506;2022-12-20T07:36:37;100540.75;;;8.88;96.70
32638;BME280;19045;52.268;10.506;2022-12-20T07:39:04;100543.66;;;8.87;97.26
32638;BME280;19045;52.268;10.506;2022-12-20T07:41:30;100528.16;;;8.89;97.20
32638;BME280;19045;52.268;10.506;2022-12-20T07:43:57;100541.63;;;8.94;96.53
32638;BME280;19045;52.268;10.506;2022-12-20T07:46:25;100542.47;;;8.94;96.94
32638;BME280;19045;52.268;10.506;2022-12-20T07:48:52;100543.50;;;8.93;96.75
32638;BME280;19045;52.268;10.506;2022-12-20T07:51:23;100541.16;;;8.97;96.40
32638;BME280;19045;52.268;10.506;2022-12-20T07:53:53;100540.34;;;8.96;96.49
32638;BME280;19045;52.268;10.506;2022-12-20T07:56:21;100535.31;;;9.00;96.23
32638;BME280;19045;52.268;10.506;2022-12-20T07:58:52;100539.63;;;9.01;95.97
32638;BME280;19045;52.268;10.506;2022-12-20T08:01:20;100545.31;;;9.04;96.03
32638;BME280;19045;52.268;10.506;2022-12-20T08:03:49;100531.09;;;9.04;96.34
32638;BME280;19045;52.268;10.506;2022-12-20T08:06:19;100530.50;;;9.02;96.44
32638;BME280;19045;52.268;10.506;2022-12-20T08:08:50;100535.63;;;9.03;97.17
32638;BME280;19045;52.268;10.506;2022-12-20T08:11:19;100553.34;;;9.04;97.48
32638;BME280;19045;52.268;10.506;2022-12-20T08:13:47;100559.66;;;8.98;98.59
32638;BME280;19045;52.268;10.506;2022-12-20T08:16:14;100554.22;;;8.93;99.47
32638;BME280;19045;52.268;10.506;2022-12-20T08:18:41;100543.28;;;8.95;99.94
32638;BME280;19045;52.268;10.506;2022-12-20T08:21:08;100535.47;;;8.93;100.00
32638;BME280;19045;52.268;10.506;2022-12-20T08:23:38;100520.38;;;8.87;100.00
32638;BME280;19045;52.268;10.506;2022-12-20T08:26:05;100522.56;;;8.90;100.00
32638;BME280;19045;52.268;10.506;2022-12-20T08:28:32;100521.50;;;8.91;99.89
32638;BME280;19045;52.268;10.506;2022-12-20T08:31:01;100531.97;;;8.93;99.81
32638;BME280;19045;52.268;10.506;2022-12-20T08:33:28;100518.09;;;8.96;99.30
32638;BME280;19045;52.268;10.506;2022-12-20T08:35:58;100524.59;;;9.00;98.77
32638;BME280;19045;52.268;10.506;2022-12-20T08:38:26;100511.75;;;9.02;98.50
32638;BME280;19045;52.268;10.506;2022-12-20T08:40:55;100515.34;;;9.07;98.23
32638;BME280;19045;52.268;10.506;2022-12-20T08:43:26;100527.19;;;9.11;97.63
32638;BME280;19045;52.268;10.506;2022-12-20T08:45:53;100517.25;;;9.12;97.06
32638;BME280;19045;52.268;10.506;2022-12-20T08:48:20;100514.09;;;9.15;96.68
32638;BME280;19045;52.268;10.506;2022-12-20T08:50:47;100519.44;;;9.15;96.62
32638;BME280;19045;52.268;10.506;2022-12-20T08:53:19;100527.81;;;9.18;96.48
32638;BME280;19045;52.268;10.506;2022-12-20T08:55:45;100519.28;;;9.21;96.27
32638;BME280;19045;52.268;10.506;2022-12-20T08:58:13;100509.16;;;9.23;96.10
32638;BME280;19045;52.268;10.506;2022-12-20T09:00:40;100518.88;;;9.29;96.04
32638;BME280;19045;52.268;10.506;2022-12-20T09:03:07;100523.50;;;9.34;95.38
32638;BME280;19045;52.268;10.506;2022-12-20T09:05:35;100513.97;;;9.43;95.23
32638;BME280;19045;52.268;10.506;2022-12-20T09:08:02;100521.75;;;9.45;95.14
32638;BME280;19045;52.268;10.506;2022-12-20T09:10:29;100504.13;;;9.49;94.39
32638;BME280;19045;52.268;10.506;2022-12-20T09:12:55;100501.75;;;9.52;94.26
32638;BME280;19045;52.268;10.506;2022-12-20T09:15:23;100501.25;;;9.55;94.22
32638;BME280;19045;52.268;10.506;2022-12-20T09:17:51;100492.97;;;9.57;93.63
32638;BME280;19045;52.268;10.506;2022-12-20T09:20:18;100493.81;;;9.57;93.37
32638;BME280;19045;52.268;10.506;2022-12-20T09:22:45;100495.47;;;9.63;93.42
32638;BME280;19045;52.268;10.506;2022-12-20T09:25:11;100484.50;;;9.65;93.01
32638;BME280;19045;52.268;10.506;2022-12-20T09:27:38;100494.72;;;9.68;92.62
32638;BME280;19045;52.268;10.506;2022-12-20T09:30:06;100492.94;;;9.73;92.40
32638;BME280;19045;52.268;10.506;2022-12-20T09:32:34;100493.78;;;9.79;91.93
32638;BME280;19045;52.268;10.506;2022-12-20T09:35:01;100487.38;;;9.80;91.63
32638;BME280;19045;52.268;10.506;2022-12-20T09:37:28;100490.91;;;9.85;91.50
32638;BME280;19045;52.268;10.506;2022-12-20T09:39:55;100500.84;;;9.85;91.43
32638;BME280;19045;52.268;10.506;2022-12-20T09:42:25;100493.88;;;9.84;90.91
32638;BME280;19045;52.268;10.506;2022-12-20T09:44:54;100509.47;;;9.87;90.63
32638;BME280;19045;52.268;10.506;2022-12-20T09:47:25;100497.66;;;9.88;90.75
32638;BME280;19045;52.268;10.506;2022-12-20T09:49:55;100494.84;;;10.00;90.16
32638;BME280;19045;52.268;10.506;2022-12-20T09:52:29;100468.81;;;10.00;89.53
32638;BME280;19045;52.268;10.506;2022-12-20T09:55:04;100475.78;;;10.01;89.64
32638;BME280;19045;52.268;10.506;2022-12-20T09:57:48;100469.91;;;10.04;89.39
32638;BME280;19045;52.268;10.506;2022-12-20T10:00:18;100469.16;;;10.09;89.40
32638;BME280;19045;52.268;10.506;2022-12-20T10:02:45;100457.38;;;10.10;88.63
32638;BME280;19045;52.268;10.506;2022-12-20T10:05:18;100458.19;;;10.10;88.39
32638;BME280;19045;52.268;10.506;2022-12-20T10:07:52;100468.66;;;10.12;88.40
32638;BME280;19045;52.268;10.506;2022-12-20T10:10:38;100460.38;;;10.13;88.16
32638;BME280;19045;52.268;10.506;2022-12-20T10:13:21;100455.84;;;10.14;88.10
32638;BME280;19045;52.268;10.506;2022-12-20T10:15:51;100464.94;;;10.13;88.58
32638;BME280;19045;52.268;10.506;2022-12-20T10:18:33;100457.22;;;10.16;88.45
32638;BME280;19045;52.268;10.506;2022-12-20T10:21:12;100452.38;;;10.18;88.07
32638;BME280;19045;52.268;10.506;2022-12-20T10:23:45;100464.00;;;10.24;88.04
32638;BME280;19045;52.268;10.506;2022-12-20T10:26:15;100443.69;;;10.33;87.46
32638;BME280;19045;52.268;10.506;2022-12-20T10:28:42;100445.03;;;10.35;87.79
32638;BME280;19045;52.268;10.506;2022-12-20T10:31:12;100443.97;;;10.36;87.60
32638;BME280;19045;52.268;10.506;2022-12-20T10:33:39;100426.31;;;10.41;87.15
32638;BME280;19045;52.268;10.506;2022-12-20T10:36:23;100436.00;;;10.47;86.96
32638;BME280;19045;52.268;10.506;2022-12-20T10:38:52;100435.81;;;10.53;86.51
32638;BME280;19045;52.268;10.506;2022-12-20T10:41:21;100433.41;;;10.57;86.45
32638;BME280;19045;52.268;10.506;2022-12-20T10:43:52;100425.09;;;10.58;86.56
32638;BME280;19045;52.268;10.506;2022-12-20T10:46:21;100425.09;;;10.58;86.53
32638;BME280;19045;52.268;10.506;2022-12-20T10:48:48;100420.28;;;10.60;86.48
32638;BME280;19045;52.268;10.506;2022-12-20T10:51:17;100416.56;;;10.66;85.89
32638;BME280;19045;52.268;10.506;2022-12-20T10:53:55;100399.66;;;10.71;85.93
32638;BME280;19045;52.268;10.506;2022-12-20T10:56:24;100410.41;;;10.71;86.41
32638;BME280;19045;52.268;10.506;2022-12-20T10:58:54;100415.31;;;10.79;85.35
32638;BME280;19045;52.268;10.506;2022-12-20T11:01:24;100409.47;;;10.92;85.43
32638;BME280;19045;52.268;10.506;2022-12-20T11:03:57;100404.41;;;11.58;82.34
32638;BME280;19045;52.268;10.506;2022-12-20T11:06:28;100358.78;;;12.13;78.29
32638;BME280;19045;52.268;10.506;2022-12-20T11:09:24;100391.56;;;11.80;80.14
32638;BME280;19045;52.268;10.506;2022-12-20T11:11:59;100402.28;;;11.60;81.09
32638;BME280;19045;52.268;10.506;2022-12-20T11:14:27;100404.31;;;11.37;82.33
32638;BME280;19045;52.268;10.506;2022-12-20T11:16:55;100395.16;;;11.33;82.63
32638;BME280;19045;52.268;10.506;2022-12-20T11:19:53;100378.00;;;11.39;82.06
32638;BME280;19045;52.268;10.506;2022-12-20T11:22:32;100398.38;;;11.25;82.92
32638;BME280;19045;52.268;10.506;2022-12-20T11:25:15;100377.38;;;11.22;83.16
32638;BME280;19045;52.268;10.506;2022-12-20T11:27:49;100398.63;;;11.24;83.30
32638;BME280;19045;52.268;10.506;2022-12-20T11:30:25;100397.84;;;11.28;82.56
32638;BME280;19045;52.268;10.506;2022-12-20T11:33:12;100390.34;;;11.40;81.99
32638;BME280;19045;52.268;10.506;2022-12-20T11:35:50;100393.59;;;11.43;81.38
32638;BME280;19045;52.268;10.506;2022-12-20T11:38:28;100393.66;;;11.53;81.67
32638;BME280;19045;52.268;10.506;2022-12-20T11:41:17;100384.19;;;11.50;81.61
32638;BME280;19045;52.268;10.506;2022-12-20T11:44:04;100374.28;;;11.56;81.27
32638;BME280;19045;52.268;10.506;2022-12-20T11:46:47;100385.00;;;11.51;81.30
32638;BME280;19045;52.268;10.506;2022-12-20T11:52:34;100375.34;;;11.55;81.57
32638;BME280;19045;52.268;10.506;2022-12-20T11:55:07;100369.97;;;11.50;80.99
32638;BME280;19045;52.268;10.506;2022-12-20T11:57:47;100378.28;;;11.43;80.74
32638;BME280;19045;52.268;10.506;2022-12-20T12:00:20;100373.09;;;11.31;81.43
32638;BME280;19045;52.268;10.506;2022-12-20T12:02:52;100376.56;;;11.22;82.37
32638;BME280;19045;52.268;10.506;2022-12-20T12:05:23;100384.34;;;11.18;82.71
32638;BME280;19045;52.268;10.506;2022-12-20T12:07:55;100363.91;;;11.17;82.43
32638;BME280;19045;52.268;10.506;2022-12-20T12:10:24;100360.38;;;11.12;82.03
32638;BME280;19045;52.268;10.506;2022-12-20T12:13:02;100356.97;;;11.26;82.37
32638;BME280;19045;52.268;10.506;2022-12-20T12:15:34;100349.69;;;11.27;81.94
32638;BME280;19045;52.268;10.506;2022-12-20T12:18:07;100354.06;;;11.43;81.50
32638;BME280;19045;52.268;10.506;2022-12-20T12:20:47;100346.28;;;11.47;80.95
32638;BME280;19045;52.268;10.506;2022-12-20T12:23:21;100338.72;;;11.43;80.82
32638;BME280;19045;52.268;10.506;2022-12-20T12:25:50;100339.81;;;11.43;80.20
32638;BME280;19045;52.268;10.506;2022-12-20T12:28:19;100340.34;;;11.45;80.91
32638;BME280;19045;52.268;10.506;2022-12-20T12:30:51;100327.69;;;11.35;81.04
32638;BME280;19045;52.268;10.506;2022-12-20T12:33:24;100314.72;;;11.22;81.16
32638;BME280;19045;52.268;10.506;2022-12-20T12:36:10;100320.63;;;11.19;81.14
32638;BME280;19045;52.268;10.506;2022-12-20T12:39:13;100327.88;;;11.13;82.10
32638;BME280;19045;52.268;10.506;2022-12-20T12:42:02;100315.47;;;11.07;81.66
32638;BME280;19045;52.268;10.506;2022-12-20T12:44:44;100330.25;;;11.05;82.05
32638;BME280;19045;52.268;10.506;2022-12-20T12:47:17;100323.00;;;11.00;81.81
32638;BME280;19045;52.268;10.506;2022-12-20T12:49:49;100324.34;;;11.03;81.83
32638;BME280;19045;52.268;10.506;2022-12-20T12:52:40;100316.50;;;11.01;81.75
32638;BME280;19045;52.268;10.506;2022-12-20T12:55:37;100322.72;;;11.02;81.44
32638;BME280;19045;52.268;10.506;2022-12-20T13:01:11;100310.88;;;11.03;81.72
32638;BME280;19045;52.268;10.506;2022-12-20T13:04:07;100316.00;;;11.04;81.53
32638;BME280;19045;52.268;10.506;2022-12-20T13:07:23;100299.03;;;11.04;81.20
32638;BME280;19045;52.268;10.506;2022-12-20T13:09:50;100307.41;;;11.02;82.06